createdAt,value
2017-12-19T00:01:06.363Z,-0.10
2017-12-19T00:03:33.989Z,-0.10
2017-12-19T00:06:01.594Z,0.00
2017-12-19T00:08:29.995Z,-0.10
2017-12-19T00:10:58.385Z,-0.20
2017-12-19T00:13:26.039Z,-0.20
2017-12-19T00:15:54.446Z,-0.20
2017-12-19T00:18:22.056Z,-0.30
2017-12-19T00:20:49.705Z,-0.30
2017-12-19T00:23:17.324Z,-0.30
2017-12-19T00:25:44.958Z,-0.40
2017-12-19T00:28:12.597Z,-0.40
2017-12-19T00:30:40.213Z,-0.30
2017-12-19T00:33:08.586Z,-0.40
2017-12-19T00:35:36.219Z,-0.40
2017-12-19T00:38:03.849Z,-0.30
2017-12-19T00:40:31.493Z,-0.30
2017-12-19T00:42:59.847Z,-0.30
2017-12-19T00:45:27.514Z,-0.30
2017-12-19T00:47:55.136Z,-0.40
2017-12-19T00:50:22.731Z,-0.40
2017-12-19T00:52:50.362Z,-0.40
2017-12-19T00:55:17.962Z,-0.40
2017-12-19T00:57:45.610Z,-0.30
2017-12-19T01:00:13.239Z,-0.30
2017-12-19T01:02:41.634Z,-0.30
2017-12-19T01:05:09.287Z,-0.30
2017-12-19T01:07:37.684Z,-0.30
2017-12-19T01:10:06.062Z,-0.30
2017-12-19T01:12:34.468Z,-0.30
2017-12-19T01:15:02.104Z,-0.30
2017-12-19T01:17:30.480Z,-0.20
2017-12-19T01:19:58.119Z,-0.20
2017-12-19T01:22:25.726Z,-0.30
2017-12-19T01:24:54.118Z,-0.30
2017-12-19T01:27:22.459Z,-0.30
2017-12-19T01:29:50.072Z,-0.30
2017-12-19T01:32:17.655Z,-0.30
2017-12-19T01:34:45.307Z,-0.40
2017-12-19T01:37:12.889Z,-0.40
2017-12-19T01:39:40.494Z,-0.40
2017-12-19T01:42:08.132Z,-0.40
2017-12-19T01:44:35.825Z,-0.40
2017-12-19T01:47:04.463Z,-0.30
2017-12-19T01:49:32.065Z,-0.30
2017-12-19T01:51:59.704Z,-0.30
2017-12-19T01:54:27.345Z,-0.30
2017-12-19T01:56:55.725Z,-0.30
2017-12-19T01:59:29.443Z,-0.30
2017-12-19T02:01:57.089Z,-0.40
2017-12-19T02:04:25.467Z,-0.30
2017-12-19T02:06:53.876Z,-0.30
2017-12-19T02:09:22.497Z,-0.30
2017-12-19T02:11:50.097Z,-0.20
2017-12-19T02:14:17.823Z,-0.30
2017-12-19T02:16:45.545Z,-0.20
2017-12-19T02:19:13.968Z,-0.20
2017-12-19T02:21:41.592Z,-0.20
2017-12-19T02:24:09.985Z,-0.10
2017-12-19T02:26:38.347Z,-0.10
2017-12-19T02:29:06.008Z,-0.10
2017-12-19T02:31:33.625Z,-0.10
2017-12-19T02:34:01.288Z,-0.10
2017-12-19T02:36:28.930Z,-0.10
2017-12-19T02:38:57.299Z,0.00
2017-12-19T02:41:25.935Z,0.00
2017-12-19T02:43:53.545Z,0.00
2017-12-19T02:46:21.184Z,0.00
2017-12-19T02:48:48.821Z,0.10
2017-12-19T02:51:16.451Z,0.00
2017-12-19T02:53:44.054Z,0.00
2017-12-19T02:56:11.709Z,0.10
2017-12-19T02:58:40.131Z,0.20
2017-12-19T03:01:07.756Z,0.10
2017-12-19T03:03:36.131Z,0.10
2017-12-19T03:06:04.563Z,0.10
2017-12-19T03:08:32.158Z,0.10
2017-12-19T03:10:59.771Z,0.20
2017-12-19T03:13:27.428Z,0.20
2017-12-19T03:15:55.037Z,0.30
2017-12-19T03:18:22.636Z,0.40
2017-12-19T03:20:50.296Z,0.30
2017-12-19T03:23:17.908Z,0.40
2017-12-19T03:25:45.565Z,0.50
2017-12-19T03:28:13.213Z,0.50
2017-12-19T03:30:41.628Z,0.40
2017-12-19T03:33:09.239Z,0.40
2017-12-19T03:35:36.887Z,0.40
2017-12-19T03:38:04.502Z,0.40
2017-12-19T03:40:32.927Z,0.50
2017-12-19T03:43:00.539Z,0.50
2017-12-19T03:45:28.905Z,0.40
2017-12-19T03:47:56.543Z,0.40
2017-12-19T03:50:24.146Z,0.50
2017-12-19T03:52:51.750Z,0.40
2017-12-19T03:55:19.368Z,0.50
2017-12-19T03:57:46.986Z,0.50
2017-12-19T04:00:14.633Z,0.50
2017-12-19T04:02:43.012Z,0.60
2017-12-19T04:05:11.437Z,0.60
2017-12-19T04:07:39.043Z,0.60
2017-12-19T04:10:06.654Z,0.60
2017-12-19T04:12:34.250Z,0.60
2017-12-19T04:15:01.902Z,0.50
2017-12-19T04:17:29.493Z,0.40
2017-12-19T04:19:57.126Z,0.40
2017-12-19T04:22:24.725Z,0.50
2017-12-19T04:24:52.326Z,0.60
2017-12-19T04:27:19.943Z,0.50
2017-12-19T04:29:47.601Z,0.40
2017-12-19T04:32:15.192Z,0.40
2017-12-19T04:34:42.828Z,0.50
2017-12-19T04:37:10.456Z,0.40
2017-12-19T04:39:38.835Z,0.50
2017-12-19T04:42:07.212Z,0.50
2017-12-19T04:44:35.587Z,0.50
2017-12-19T04:47:04.000Z,0.50
2017-12-19T04:49:31.600Z,0.50
2017-12-19T04:51:59.218Z,0.50
2017-12-19T04:54:27.619Z,0.50
2017-12-19T04:56:55.209Z,0.50
2017-12-19T04:59:22.821Z,0.50
2017-12-19T05:01:51.227Z,0.30
2017-12-19T05:04:18.859Z,0.30
2017-12-19T05:06:46.443Z,0.40
2017-12-19T05:09:14.823Z,0.40
2017-12-19T05:11:43.189Z,0.40
2017-12-19T05:14:10.798Z,0.40
2017-12-19T05:16:38.413Z,0.40
2017-12-19T05:19:06.057Z,0.40
2017-12-19T05:21:33.684Z,0.40
2017-12-19T05:24:02.060Z,0.30
2017-12-19T05:26:30.443Z,0.40
2017-12-19T05:28:58.828Z,0.30
2017-12-19T05:31:27.231Z,0.30
2017-12-19T05:33:54.843Z,0.30
2017-12-19T05:36:22.446Z,0.30
2017-12-19T05:38:50.826Z,0.30
2017-12-19T05:41:20.228Z,0.40
2017-12-19T05:43:48.590Z,0.50
2017-12-19T05:46:16.208Z,0.50
2017-12-19T05:48:43.848Z,0.50
2017-12-19T05:51:12.249Z,0.70
2017-12-19T05:53:39.902Z,0.70
2017-12-19T05:56:08.279Z,0.70
2017-12-19T05:58:37.604Z,0.70
2017-12-19T06:01:05.224Z,0.70
2017-12-19T06:03:32.847Z,0.70
2017-12-19T06:06:00.459Z,0.70
2017-12-19T06:08:28.072Z,0.70
2017-12-19T06:10:55.679Z,0.70
2017-12-19T06:13:23.289Z,0.70
2017-12-19T06:15:51.713Z,0.60
2017-12-19T06:18:19.316Z,0.60
2017-12-19T06:20:46.945Z,0.40
2017-12-19T06:23:14.619Z,0.50
2017-12-19T06:25:42.224Z,0.50
2017-12-19T06:28:10.662Z,0.40
2017-12-19T06:30:38.253Z,0.30
2017-12-19T06:33:05.903Z,0.30
2017-12-19T06:35:33.510Z,0.30
2017-12-19T06:38:01.965Z,0.50
2017-12-19T06:40:29.592Z,0.50
2017-12-19T06:42:57.264Z,0.50
2017-12-19T06:45:25.041Z,0.60
2017-12-19T06:47:52.664Z,0.60
2017-12-19T06:50:20.273Z,0.60
2017-12-19T06:52:47.914Z,0.60
2017-12-19T06:55:15.543Z,0.70
2017-12-19T06:57:43.190Z,0.70
2017-12-19T07:00:10.811Z,0.80
2017-12-19T07:02:38.458Z,0.80
2017-12-19T07:05:06.850Z,0.80
2017-12-19T07:07:35.230Z,0.80
2017-12-19T07:10:03.618Z,0.80
2017-12-19T07:12:31.961Z,0.80
2017-12-19T07:14:59.605Z,0.80
2017-12-19T07:17:27.235Z,0.80
2017-12-19T07:19:55.612Z,0.80
2017-12-19T07:22:24.022Z,0.90
2017-12-19T07:24:51.721Z,0.90
2017-12-19T07:27:19.478Z,1.00
2017-12-19T07:29:47.107Z,0.90
2017-12-19T07:32:14.798Z,0.90
2017-12-19T07:34:43.132Z,0.90
2017-12-19T07:37:10.768Z,0.90
2017-12-19T07:39:38.484Z,1.00
2017-12-19T07:42:06.879Z,1.10
2017-12-19T07:44:34.471Z,1.00
2017-12-19T07:47:02.109Z,1.00
2017-12-19T07:49:29.709Z,1.10
2017-12-19T07:51:57.359Z,1.00
2017-12-19T07:54:25.973Z,1.10
2017-12-19T07:56:53.576Z,1.10
2017-12-19T07:59:21.993Z,1.20
2017-12-19T08:01:49.599Z,1.20
2017-12-19T08:04:17.213Z,1.30
2017-12-19T08:06:44.846Z,1.30
2017-12-19T08:09:12.484Z,1.40
2017-12-19T08:11:40.072Z,1.40
2017-12-19T08:14:07.696Z,1.50
2017-12-19T08:16:36.305Z,1.50
2017-12-19T08:19:03.912Z,1.50
2017-12-19T08:21:32.307Z,1.50
2017-12-19T08:24:01.058Z,1.60
2017-12-19T08:26:28.657Z,1.60
2017-12-19T08:28:57.019Z,1.80
2017-12-19T08:31:24.629Z,1.80
2017-12-19T08:33:52.238Z,1.80
2017-12-19T08:36:20.337Z,2.00
2017-12-19T08:38:47.990Z,1.90
2017-12-19T08:41:15.594Z,1.90
2017-12-19T08:43:43.214Z,1.90
2017-12-19T08:46:10.810Z,1.90
2017-12-19T08:48:39.177Z,1.90
2017-12-19T08:51:06.795Z,1.90
2017-12-19T08:53:34.399Z,2.00
2017-12-19T08:56:01.982Z,2.00
2017-12-19T08:58:30.381Z,2.40
2017-12-19T09:00:57.983Z,2.30
2017-12-19T09:03:25.630Z,2.40
2017-12-19T09:05:53.214Z,2.30
2017-12-19T09:08:20.809Z,2.30
2017-12-19T09:10:48.523Z,2.40
2017-12-19T09:13:16.110Z,2.40
2017-12-19T09:15:43.728Z,2.50
2017-12-19T09:18:12.086Z,2.30
2017-12-19T09:20:40.673Z,2.30
2017-12-19T09:23:08.268Z,2.50
2017-12-19T09:25:36.623Z,2.50
2017-12-19T09:28:04.235Z,2.50
2017-12-19T09:30:31.827Z,2.50
2017-12-19T09:32:59.424Z,2.50
2017-12-19T09:35:27.004Z,2.50
2017-12-19T09:37:54.654Z,2.50
2017-12-19T09:40:22.280Z,2.50
2017-12-19T09:42:49.938Z,2.60
2017-12-19T09:45:17.570Z,2.70
2017-12-19T09:47:45.977Z,2.90
2017-12-19T09:50:14.341Z,3.00
2017-12-19T09:52:42.732Z,3.20
2017-12-19T09:55:11.083Z,3.40
2017-12-19T09:57:38.802Z,3.40
2017-12-19T10:00:06.417Z,3.40
2017-12-19T10:02:34.023Z,3.40
2017-12-19T10:05:02.397Z,3.50
2017-12-19T10:07:30.766Z,3.20
2017-12-19T10:09:58.575Z,3.20
2017-12-19T10:12:26.500Z,3.20
2017-12-19T10:14:54.231Z,3.10
2017-12-19T10:17:21.827Z,3.10
2017-12-19T10:19:49.448Z,3.10
2017-12-19T10:22:17.063Z,3.20
2017-12-19T10:24:44.694Z,3.10
2017-12-19T10:27:12.333Z,3.20
2017-12-19T10:29:40.721Z,2.80
2017-12-19T10:32:08.341Z,2.80
2017-12-19T10:34:35.942Z,2.80
2017-12-19T10:37:04.305Z,3.00
2017-12-19T10:39:32.906Z,3.00
2017-12-19T10:42:01.261Z,3.10
2017-12-19T10:44:28.879Z,3.20
2017-12-19T10:46:56.488Z,3.30
2017-12-19T10:49:24.384Z,3.30
2017-12-19T10:51:51.979Z,3.20
2017-12-19T10:54:19.570Z,3.40
2017-12-19T10:56:48.170Z,3.70
2017-12-19T10:59:16.777Z,3.80
2017-12-19T11:01:44.368Z,3.90
2017-12-19T11:04:12.730Z,3.80
2017-12-19T11:06:40.351Z,3.70
2017-12-19T11:09:07.961Z,3.60
2017-12-19T11:11:35.538Z,3.40
2017-12-19T11:14:03.159Z,3.30
2017-12-19T11:16:30.756Z,3.20
2017-12-19T11:18:58.343Z,3.10
2017-12-19T11:21:25.958Z,3.10
2017-12-19T11:23:53.567Z,3.10
2017-12-19T11:26:21.448Z,3.00
2017-12-19T11:28:49.810Z,3.00
2017-12-19T11:31:17.429Z,3.00
2017-12-19T11:33:45.049Z,2.90
2017-12-19T11:36:12.652Z,3.00
2017-12-19T11:38:40.277Z,3.00
2017-12-19T11:41:07.877Z,2.90
2017-12-19T11:43:35.502Z,2.90
2017-12-19T11:46:03.117Z,2.80
2017-12-19T11:48:30.722Z,2.80
2017-12-19T11:50:58.328Z,2.80
2017-12-19T11:53:26.702Z,3.00
2017-12-19T11:55:55.092Z,3.00
2017-12-19T11:58:23.453Z,3.00
2017-12-19T12:00:51.072Z,3.00
2017-12-19T12:03:18.724Z,3.10
2017-12-19T12:05:46.329Z,3.10
2017-12-19T12:08:13.933Z,3.00
2017-12-19T12:10:41.548Z,3.00
2017-12-19T12:13:09.151Z,2.90
2017-12-19T12:15:36.753Z,2.90
2017-12-19T12:18:04.358Z,2.80
2017-12-19T12:20:31.957Z,2.80
2017-12-19T12:23:00.371Z,3.00
2017-12-19T12:25:27.951Z,3.00
2017-12-19T12:27:55.576Z,3.00
2017-12-19T12:30:23.950Z,3.20
2017-12-19T12:32:52.321Z,3.20
2017-12-19T12:35:19.953Z,3.20
2017-12-19T12:37:48.627Z,3.30
2017-12-19T12:40:16.260Z,3.40
2017-12-19T12:42:44.669Z,2.90
2017-12-19T12:45:12.251Z,2.90
2017-12-19T12:47:39.884Z,2.80
2017-12-19T12:50:07.556Z,2.60
2017-12-19T12:52:35.133Z,2.70
2017-12-19T12:55:02.758Z,2.70
2017-12-19T12:57:30.374Z,2.90
2017-12-19T12:59:58.139Z,2.80
2017-12-19T13:02:25.727Z,2.90
2017-12-19T13:04:53.386Z,3.00
2017-12-19T13:07:21.019Z,3.00
2017-12-19T13:09:49.414Z,2.70
2017-12-19T13:12:18.043Z,2.70
2017-12-19T13:14:45.647Z,2.60
2017-12-19T13:17:14.030Z,2.30
2017-12-19T13:19:42.456Z,2.10
2017-12-19T13:22:10.042Z,2.10
2017-12-19T13:24:37.705Z,2.10
2017-12-19T13:27:05.318Z,2.00
2017-12-19T13:29:33.668Z,2.30
2017-12-19T13:32:01.272Z,2.20
2017-12-19T13:34:29.791Z,2.30
2017-12-19T13:36:57.377Z,2.30
2017-12-19T13:39:24.993Z,2.30
2017-12-19T13:41:53.384Z,2.20
2017-12-19T13:44:20.976Z,2.30
2017-12-19T13:46:48.582Z,2.20
2017-12-19T13:49:16.235Z,2.20
2017-12-19T13:51:43.818Z,2.30
2017-12-19T13:54:11.442Z,2.20
2017-12-19T13:56:39.012Z,2.30
2017-12-19T13:59:06.643Z,2.20
2017-12-19T14:01:34.238Z,2.40
2017-12-19T14:04:01.844Z,2.50
2017-12-19T14:06:29.460Z,2.60
2017-12-19T14:08:57.828Z,2.60
2017-12-19T14:11:25.470Z,2.60
2017-12-19T14:13:54.536Z,2.50
2017-12-19T14:16:22.167Z,2.40
2017-12-19T14:18:49.773Z,2.30
2017-12-19T14:21:17.403Z,2.20
2017-12-19T14:23:44.978Z,2.10
2017-12-19T14:26:12.606Z,2.00
2017-12-19T14:28:40.953Z,2.00
2017-12-19T14:31:08.539Z,2.00
2017-12-19T14:33:36.922Z,1.90
2017-12-19T14:36:04.621Z,1.90
2017-12-19T14:38:33.302Z,1.90
2017-12-19T14:41:01.668Z,1.90
2017-12-19T14:43:30.032Z,1.90
2017-12-19T14:45:57.654Z,1.90
2017-12-19T14:48:25.298Z,2.00
2017-12-19T14:50:52.892Z,1.90
2017-12-19T14:53:20.496Z,1.90
2017-12-19T14:55:48.108Z,1.90
2017-12-19T14:58:15.744Z,1.90
2017-12-19T15:00:44.483Z,1.90
2017-12-19T15:03:12.070Z,1.90
2017-12-19T15:05:39.673Z,1.80
2017-12-19T15:08:08.040Z,1.70
2017-12-19T15:10:35.647Z,1.70
2017-12-19T15:13:03.242Z,1.70
2017-12-19T15:15:30.849Z,1.60
2017-12-19T15:17:59.218Z,1.40
2017-12-19T15:20:26.839Z,1.40
2017-12-19T15:22:54.474Z,1.40
2017-12-19T15:25:22.822Z,1.40
2017-12-19T15:27:50.462Z,1.40
2017-12-19T15:30:18.052Z,1.40
2017-12-19T15:32:45.653Z,1.40
2017-12-19T15:35:14.032Z,1.30
2017-12-19T15:37:42.397Z,1.30
2017-12-19T15:40:10.008Z,1.30
2017-12-19T15:42:37.591Z,1.30
2017-12-19T15:45:05.227Z,1.30
2017-12-19T15:47:33.590Z,1.30
2017-12-19T15:50:01.274Z,1.30
2017-12-19T15:52:29.642Z,1.20
2017-12-19T15:54:58.027Z,1.30
2017-12-19T15:57:26.456Z,1.30
2017-12-19T15:59:54.107Z,1.20
2017-12-19T16:02:22.344Z,1.30
2017-12-19T16:04:49.946Z,1.30
2017-12-19T16:07:17.543Z,1.30
2017-12-19T16:09:45.140Z,1.20
2017-12-19T16:12:13.619Z,1.10
2017-12-19T16:14:41.196Z,1.10
2017-12-19T16:17:09.559Z,1.10
2017-12-19T16:19:37.198Z,1.10
2017-12-19T16:22:04.804Z,1.10
2017-12-19T16:24:32.427Z,1.10
2017-12-19T16:27:00.065Z,1.10
2017-12-19T16:29:28.611Z,1.10
2017-12-19T16:31:56.230Z,1.10
2017-12-19T16:34:23.825Z,1.10
2017-12-19T16:36:51.442Z,1.10
2017-12-19T16:39:19.073Z,1.10
2017-12-19T16:41:46.667Z,1.10
2017-12-19T16:44:15.055Z,1.10
2017-12-19T16:46:43.439Z,1.10
2017-12-19T16:49:11.878Z,1.10
2017-12-19T16:51:39.480Z,1.10
2017-12-19T16:54:08.859Z,1.00
2017-12-19T16:56:36.718Z,1.00
2017-12-19T16:59:05.152Z,1.10
2017-12-19T17:01:34.499Z,1.10
2017-12-19T17:04:02.084Z,1.10
2017-12-19T17:06:29.707Z,1.10
2017-12-19T17:08:57.332Z,1.10
2017-12-19T17:11:25.003Z,1.10
2017-12-19T17:13:52.615Z,1.00
2017-12-19T17:16:20.215Z,1.00
2017-12-19T17:18:47.836Z,1.00
2017-12-19T17:21:15.483Z,1.00
2017-12-19T17:23:43.521Z,1.10
2017-12-19T17:26:11.960Z,1.10
2017-12-19T17:28:40.336Z,1.10
2017-12-19T17:31:08.228Z,1.10
2017-12-19T17:33:36.122Z,1.10
2017-12-19T17:36:03.743Z,1.10
2017-12-19T17:38:32.110Z,1.00
2017-12-19T17:41:00.777Z,1.00
2017-12-19T17:43:28.362Z,1.10
2017-12-19T17:45:55.974Z,1.10
2017-12-19T17:48:23.780Z,1.10
2017-12-19T17:50:51.361Z,1.10
2017-12-19T17:53:18.965Z,1.00
2017-12-19T17:55:46.597Z,1.00
2017-12-19T17:58:14.342Z,1.00
2017-12-19T18:00:41.981Z,1.10
2017-12-19T18:03:10.081Z,1.00
2017-12-19T18:05:38.689Z,1.00
2017-12-19T18:08:07.821Z,1.00
2017-12-19T18:10:35.519Z,1.00
2017-12-19T18:13:04.506Z,1.00
2017-12-19T18:15:32.152Z,1.00
2017-12-19T18:18:00.942Z,1.00
2017-12-19T18:20:28.863Z,1.00
2017-12-19T18:22:56.674Z,1.10
2017-12-19T18:25:24.326Z,1.00
2017-12-19T18:27:52.366Z,1.00
2017-12-19T18:30:20.341Z,1.00
2017-12-19T18:32:48.881Z,1.10
2017-12-19T18:35:16.777Z,1.10
2017-12-19T18:37:44.549Z,1.10
2017-12-19T18:40:12.693Z,1.10
2017-12-19T18:42:42.266Z,1.10
2017-12-19T18:45:10.046Z,1.10
2017-12-19T18:47:37.770Z,1.10
2017-12-19T18:50:06.418Z,1.10
2017-12-19T18:52:34.072Z,1.10
2017-12-19T18:55:01.697Z,1.00
2017-12-19T18:57:30.033Z,1.10
2017-12-19T18:59:57.713Z,1.20
2017-12-19T19:02:25.366Z,1.10
2017-12-19T19:04:53.386Z,1.00
2017-12-19T19:07:22.410Z,1.00
2017-12-19T19:09:50.548Z,1.00
2017-12-19T19:12:21.992Z,1.00
2017-12-19T19:14:53.620Z,1.00
2017-12-19T19:17:23.606Z,1.00
2017-12-19T19:19:51.451Z,1.00
2017-12-19T19:22:20.472Z,0.90
2017-12-19T19:24:49.599Z,0.90
2017-12-19T19:27:18.875Z,1.00
2017-12-19T19:29:50.486Z,1.00
2017-12-19T19:32:20.481Z,0.90
2017-12-19T19:34:50.086Z,0.90
2017-12-19T19:39:59.876Z,1.00
2017-12-19T19:42:32.913Z,1.00
2017-12-19T19:45:01.490Z,1.00
2017-12-19T19:47:30.372Z,1.00
2017-12-19T19:49:58.852Z,1.00
2017-12-19T19:52:27.056Z,1.00
2017-12-19T19:54:55.361Z,1.10
2017-12-19T19:57:24.148Z,0.90
2017-12-19T19:59:53.595Z,0.80
2017-12-19T20:04:55.356Z,0.90
2017-12-19T20:07:23.251Z,0.90
2017-12-19T20:09:51.822Z,0.90
2017-12-19T20:12:19.727Z,0.90
2017-12-19T20:14:48.355Z,0.90
2017-12-19T20:17:16.175Z,0.90
2017-12-19T20:19:43.866Z,0.90
2017-12-19T20:22:12.016Z,0.80
2017-12-19T20:24:40.711Z,0.80
2017-12-19T20:27:08.824Z,0.80
2017-12-19T20:29:37.261Z,0.80
2017-12-19T20:32:05.459Z,0.90
2017-12-19T20:34:33.232Z,0.80
2017-12-19T20:37:00.957Z,0.80
2017-12-19T20:39:34.331Z,0.70
2017-12-19T20:42:03.446Z,0.60
2017-12-19T20:44:31.100Z,0.50
2017-12-19T20:46:59.007Z,0.50
2017-12-19T20:49:27.557Z,0.50
2017-12-19T20:52:04.202Z,0.50
2017-12-19T20:54:31.863Z,0.50
2017-12-19T20:57:00.286Z,0.40
2017-12-19T20:59:27.891Z,0.40
2017-12-19T21:01:55.544Z,0.50
2017-12-19T21:04:23.160Z,0.50
2017-12-19T21:06:50.878Z,0.50
2017-12-19T21:09:18.506Z,0.50
2017-12-19T21:11:46.111Z,0.50
2017-12-19T21:14:16.576Z,0.40
2017-12-19T21:16:46.810Z,0.40
2017-12-19T21:19:17.288Z,0.40
2017-12-19T21:21:44.950Z,0.40
2017-12-19T21:24:15.445Z,0.30
2017-12-19T21:26:43.160Z,0.30
2017-12-19T21:29:10.824Z,0.30
2017-12-19T21:31:38.502Z,0.20
2017-12-19T21:34:07.273Z,0.30
2017-12-19T21:36:34.910Z,0.20
2017-12-19T21:39:02.948Z,0.10
2017-12-19T21:41:31.462Z,0.10
2017-12-19T21:43:59.712Z,0.10
2017-12-19T21:46:27.776Z,0.20
2017-12-19T21:48:55.470Z,0.20
2017-12-19T21:51:24.261Z,0.30
2017-12-19T21:53:52.961Z,0.30
2017-12-19T21:56:20.813Z,0.30
2017-12-19T21:58:48.748Z,0.30
2017-12-19T22:01:16.655Z,0.30
2017-12-19T22:03:44.324Z,0.30
2017-12-19T22:06:12.712Z,0.40
2017-12-19T22:08:41.455Z,0.30
2017-12-19T22:11:10.927Z,0.30
2017-12-19T22:13:38.878Z,0.40
2017-12-19T22:16:10.724Z,0.30
2017-12-19T22:18:38.936Z,0.30
2017-12-19T22:21:06.544Z,0.30
2017-12-19T22:23:34.170Z,0.40
2017-12-19T22:26:01.781Z,0.40
2017-12-19T22:28:29.394Z,0.40
2017-12-19T22:30:57.029Z,0.40
2017-12-19T22:33:24.639Z,0.40
2017-12-19T22:35:52.391Z,0.50
2017-12-19T22:38:21.408Z,0.50
2017-12-19T22:40:49.280Z,0.50
2017-12-19T22:43:17.042Z,0.50
2017-12-19T22:45:45.478Z,0.60
2017-12-19T22:48:13.078Z,0.60
2017-12-19T22:50:40.763Z,0.60
2017-12-19T22:53:09.150Z,0.50
2017-12-19T22:55:36.770Z,0.50
2017-12-19T22:58:04.374Z,0.50
2017-12-19T23:00:31.976Z,0.50
2017-12-19T23:02:59.616Z,0.50
2017-12-19T23:05:27.997Z,0.40
2017-12-19T23:07:56.374Z,0.40
2017-12-19T23:10:24.734Z,0.40
2017-12-19T23:12:52.386Z,0.40
2017-12-19T23:15:20.037Z,0.40
2017-12-19T23:17:47.656Z,0.40
2017-12-19T23:20:16.029Z,0.40
2017-12-19T23:22:43.641Z,0.40
2017-12-19T23:25:11.249Z,0.40
2017-12-19T23:27:38.868Z,0.30
2017-12-19T23:30:06.519Z,0.30
2017-12-19T23:32:34.870Z,0.30
2017-12-19T23:35:02.510Z,0.30
2017-12-19T23:37:30.132Z,0.30
2017-12-19T23:39:57.745Z,0.30
2017-12-19T23:42:25.343Z,0.30
2017-12-19T23:44:52.992Z,0.30
2017-12-19T23:47:20.628Z,0.30
2017-12-19T23:49:48.231Z,0.30
2017-12-19T23:52:15.876Z,0.40
2017-12-19T23:54:43.500Z,0.40
2017-12-19T23:57:11.854Z,0.30
2017-12-19T23:59:40.254Z,0.40
